sensor_id;sensor_type;location;lat;lon;timestamp;temperature;humidity
11748;DHT22;5931;48.832;9.072;2023-05-03T00:02:14;7.90;99.90
11748;DHT22;5931;48.832;9.072;2023-05-03T00:04:41;7.80;99.90
11748;DHT22;5931;48.832;9.072;2023-05-03T00:07:06;7.60;99.90
11748;DHT22;5931;48.832;9.072;2023-05-03T00:09:33;7.50;99.90
11748;DHT22;5931;48.832;9.072;2023-05-03T00:12:00;7.50;99.90
11748;DHT22;5931;48.832;9.072;2023-05-03T00:14:26;7.60;99.90
11748;DHT22;5931;48.832;9.072;2023-05-03T00:16:52;7.60;99.90
11748;DHT22;5931;48.832;9.072;2023-05-03T00:19:17;7.60;99.90
11748;DHT22;5931;48.832;9.072;2023-05-03T00:21:44;7.60;99.90
11748;DHT22;5931;48.832;9.072;2023-05-03T00:24:10;7.70;99.90
11748;DHT22;5931;48.832;9.072;2023-05-03T00:26:36;7.80;99.90
11748;DHT22;5931;48.832;9.072;2023-05-03T00:29:02;7.80;99.90
11748;DHT22;5931;48.832;9.072;2023-05-03T00:31:27;7.90;99.90
11748;DHT22;5931;48.832;9.072;2023-05-03T00:33:53;7.90;99.90
11748;DHT22;5931;48.832;9.072;2023-05-03T00:36:19;7.90;99.90
11748;DHT22;5931;48.832;9.072;2023-05-03T00:38:44;7.90;99.90
11748;DHT22;5931;48.832;9.072;2023-05-03T00:41:10;7.90;99.90
11748;DHT22;5931;48.832;9.072;2023-05-03T00:43:36;8.00;99.90
11748;DHT22;5931;48.832;9.072;2023-05-03T00:46:06;8.00;99.90
11748;DHT22;5931;48.832;9.072;2023-05-03T00:48:34;7.90;99.90
11748;DHT22;5931;48.832;9.072;2023-05-03T00:51:02;7.80;99.90
11748;DHT22;5931;48.832;9.072;2023-05-03T00:53:29;7.70;99.90
11748;DHT22;5931;48.832;9.072;2023-05-03T00:55:58;7.70;99.90
11748;DHT22;5931;48.832;9.072;2023-05-03T00:58:24;7.60;99.90
11748;DHT22;5931;48.832;9.072;2023-05-03T01:00:51;7.50;99.90
11748;DHT22;5931;48.832;9.072;2023-05-03T01:03:17;7.40;99.90
11748;DHT22;5931;48.832;9.072;2023-05-03T01:08:31;7.30;99.90
11748;DHT22;5931;48.832;9.072;2023-05-03T01:13:44;7.10;99.90
11748;DHT22;5931;48.832;9.072;2023-05-03T01:19:35;7.00;99.90
11748;DHT22;5931;48.832;9.072;2023-05-03T01:22:25;6.80;99.90
11748;DHT22;5931;48.832;9.072;2023-05-03T01:25:06;6.70;99.90
11748;DHT22;5931;48.832;9.072;2023-05-03T01:27:32;6.60;99.90
11748;DHT22;5931;48.832;9.072;2023-05-03T01:29:58;6.60;99.90
11748;DHT22;5931;48.832;9.072;2023-05-03T01:33:17;6.50;99.90
11748;DHT22;5931;48.832;9.072;2023-05-03T01:35:19;6.50;99.90
11748;DHT22;5931;48.832;9.072;2023-05-03T01:37:48;6.50;99.90
11748;DHT22;5931;48.832;9.072;2023-05-03T01:40:16;6.50;99.90
11748;DHT22;5931;48.832;9.072;2023-05-03T01:42:45;6.40;99.90
11748;DHT22;5931;48.832;9.072;2023-05-03T01:45:13;6.30;99.90
11748;DHT22;5931;48.832;9.072;2023-05-03T01:47:40;6.30;99.90
11748;DHT22;5931;48.832;9.072;2023-05-03T01:50:05;6.20;99.90
11748;DHT22;5931;48.832;9.072;2023-05-03T01:52:31;6.10;99.90
11748;DHT22;5931;48.832;9.072;2023-05-03T01:54:57;6.00;99.90
11748;DHT22;5931;48.832;9.072;2023-05-03T01:57:24;6.00;99.90
11748;DHT22;5931;48.832;9.072;2023-05-03T01:59:50;5.90;99.90
11748;DHT22;5931;48.832;9.072;2023-05-03T02:02:15;5.90;99.90
11748;DHT22;5931;48.832;9.072;2023-05-03T02:04:41;5.80;99.90
11748;DHT22;5931;48.832;9.072;2023-05-03T02:07:07;5.80;99.90
11748;DHT22;5931;48.832;9.072;2023-05-03T02:09:33;5.70;99.90
11748;DHT22;5931;48.832;9.072;2023-05-03T02:11:59;5.60;99.90
11748;DHT22;5931;48.832;9.072;2023-05-03T02:14:25;5.50;99.90
11748;DHT22;5931;48.832;9.072;2023-05-03T02:16:50;5.40;99.90
11748;DHT22;5931;48.832;9.072;2023-05-03T02:19:16;5.40;99.90
11748;DHT22;5931;48.832;9.072;2023-05-03T02:21:42;5.30;99.90
11748;DHT22;5931;48.832;9.072;2023-05-03T02:24:07;5.20;99.90
11748;DHT22;5931;48.832;9.072;2023-05-03T02:26:33;5.20;99.90
11748;DHT22;5931;48.832;9.072;2023-05-03T02:28:59;5.20;99.90
11748;DHT22;5931;48.832;9.072;2023-05-03T02:31:26;5.10;99.90
11748;DHT22;5931;48.832;9.072;2023-05-03T02:33:53;5.10;99.90
11748;DHT22;5931;48.832;9.072;2023-05-03T02:36:20;5.10;99.90
11748;DHT22;5931;48.832;9.072;2023-05-03T02:38:46;5.10;99.90
11748;DHT22;5931;48.832;9.072;2023-05-03T02:41:12;5.10;99.90
11748;DHT22;5931;48.832;9.072;2023-05-03T02:43:38;5.10;99.90
11748;DHT22;5931;48.832;9.072;2023-05-03T02:46:04;5.00;99.90
11748;DHT22;5931;48.832;9.072;2023-05-03T02:48:30;4.90;99.90
11748;DHT22;5931;48.832;9.072;2023-05-03T02:50:56;5.00;99.90
11748;DHT22;5931;48.832;9.072;2023-05-03T02:53:21;5.00;99.90
11748;DHT22;5931;48.832;9.072;2023-05-03T02:55:48;5.10;99.90
11748;DHT22;5931;48.832;9.072;2023-05-03T02:58:13;5.10;99.90
11748;DHT22;5931;48.832;9.072;2023-05-03T03:00:40;5.00;99.90
11748;DHT22;5931;48.832;9.072;2023-05-03T03:03:05;4.90;99.90
11748;DHT22;5931;48.832;9.072;2023-05-03T03:05:32;4.80;99.90
11748;DHT22;5931;48.832;9.072;2023-05-03T03:07:57;4.80;99.90
11748;DHT22;5931;48.832;9.072;2023-05-03T03:10:23;4.80;99.90
11748;DHT22;5931;48.832;9.072;2023-05-03T03:12:49;4.70;99.90
11748;DHT22;5931;48.832;9.072;2023-05-03T03:15:23;4.60;99.90
11748;DHT22;5931;48.832;9.072;2023-05-03T03:17:49;4.60;99.90
11748;DHT22;5931;48.832;9.072;2023-05-03T03:20:15;4.50;99.90
11748;DHT22;5931;48.832;9.072;2023-05-03T03:22:45;4.40;99.90
11748;DHT22;5931;48.832;9.072;2023-05-03T03:25:11;4.30;99.90
11748;DHT22;5931;48.832;9.072;2023-05-03T03:27:37;4.30;99.90
11748;DHT22;5931;48.832;9.072;2023-05-03T03:30:03;4.30;99.90
11748;DHT22;5931;48.832;9.072;2023-05-03T03:32:33;4.20;99.90
11748;DHT22;5931;48.832;9.072;2023-05-03T03:35:01;4.30;99.90
11748;DHT22;5931;48.832;9.072;2023-05-03T03:37:28;4.50;99.90
11748;DHT22;5931;48.832;9.072;2023-05-03T03:39:54;4.50;99.90
11748;DHT22;5931;48.832;9.072;2023-05-03T03:42:20;4.50;99.90
11748;DHT22;5931;48.832;9.072;2023-05-03T03:44:48;4.60;99.90
11748;DHT22;5931;48.832;9.072;2023-05-03T03:47:14;4.70;99.90
11748;DHT22;5931;48.832;9.072;2023-05-03T03:49:40;4.80;99.90
11748;DHT22;5931;48.832;9.072;2023-05-03T03:52:05;5.00;99.90
11748;DHT22;5931;48.832;9.072;2023-05-03T03:54:33;5.10;99.90
11748;DHT22;5931;48.832;9.072;2023-05-03T03:57:01;5.20;99.90
11748;DHT22;5931;48.832;9.072;2023-05-03T03:59:29;5.30;99.90
11748;DHT22;5931;48.832;9.072;2023-05-03T04:01:55;5.40;99.90
11748;DHT22;5931;48.832;9.072;2023-05-03T04:04:21;5.50;99.90
11748;DHT22;5931;48.832;9.072;2023-05-03T04:06:48;5.60;99.90
11748;DHT22;5931;48.832;9.072;2023-05-03T04:09:14;5.70;99.90
11748;DHT22;5931;48.832;9.072;2023-05-03T04:11:42;5.80;99.90
11748;DHT22;5931;48.832;9.072;2023-05-03T04:14:08;5.90;99.90
11748;DHT22;5931;48.832;9.072;2023-05-03T04:16:34;5.90;99.90
11748;DHT22;5931;48.832;9.072;2023-05-03T04:19:01;6.00;99.90
11748;DHT22;5931;48.832;9.072;2023-05-03T04:21:29;6.10;99.90
11748;DHT22;5931;48.832;9.072;2023-05-03T04:23:55;6.20;99.90
11748;DHT22;5931;48.832;9.072;2023-05-03T04:26:22;6.30;99.90
11748;DHT22;5931;48.832;9.072;2023-05-03T04:28:49;6.30;99.90
11748;DHT22;5931;48.832;9.072;2023-05-03T04:31:16;6.40;99.90
11748;DHT22;5931;48.832;9.072;2023-05-03T04:33:42;6.50;99.90
11748;DHT22;5931;48.832;9.072;2023-05-03T04:36:08;6.50;99.90
11748;DHT22;5931;48.832;9.072;2023-05-03T04:38:36;6.60;99.90
11748;DHT22;5931;48.832;9.072;2023-05-03T04:41:05;6.60;99.90
11748;DHT22;5931;48.832;9.072;2023-05-03T04:43:31;6.70;99.90
11748;DHT22;5931;48.832;9.072;2023-05-03T04:45:58;6.70;99.90
11748;DHT22;5931;48.832;9.072;2023-05-03T04:48:25;6.80;99.90
11748;DHT22;5931;48.832;9.072;2023-05-03T04:50:51;6.90;99.90
11748;DHT22;5931;48.832;9.072;2023-05-03T04:53:18;7.00;99.90
11748;DHT22;5931;48.832;9.072;2023-05-03T04:55:50;7.20;99.90
11748;DHT22;5931;48.832;9.072;2023-05-03T04:58:16;7.20;99.90
11748;DHT22;5931;48.832;9.072;2023-05-03T05:00:44;7.30;99.90
11748;DHT22;5931;48.832;9.072;2023-05-03T05:03:16;7.40;99.90
11748;DHT22;5931;48.832;9.072;2023-05-03T05:05:42;7.60;99.90
11748;DHT22;5931;48.832;9.072;2023-05-03T05:08:09;7.70;99.90
11748;DHT22;5931;48.832;9.072;2023-05-03T05:10:40;7.80;99.90
11748;DHT22;5931;48.832;9.072;2023-05-03T05:13:07;7.90;99.90
11748;DHT22;5931;48.832;9.072;2023-05-03T05:15:33;8.00;99.90
11748;DHT22;5931;48.832;9.072;2023-05-03T05:17:59;8.00;99.90
11748;DHT22;5931;48.832;9.072;2023-05-03T05:20:25;8.00;99.90
11748;DHT22;5931;48.832;9.072;2023-05-03T05:22:51;8.00;99.90
11748;DHT22;5931;48.832;9.072;2023-05-03T05:25:17;8.10;99.90
11748;DHT22;5931;48.832;9.072;2023-05-03T05:27:43;8.10;99.90
11748;DHT22;5931;48.832;9.072;2023-05-03T05:30:09;8.20;99.90
11748;DHT22;5931;48.832;9.072;2023-05-03T05:32:38;8.20;99.90
11748;DHT22;5931;48.832;9.072;2023-05-03T05:35:06;8.40;99.90
11748;DHT22;5931;48.832;9.072;2023-05-03T05:37:32;8.40;99.90
11748;DHT22;5931;48.832;9.072;2023-05-03T05:40:00;8.40;99.90
11748;DHT22;5931;48.832;9.072;2023-05-03T05:42:31;8.30;99.90
11748;DHT22;5931;48.832;9.072;2023-05-03T05:44:56;8.20;99.90
11748;DHT22;5931;48.832;9.072;2023-05-03T05:47:22;8.10;99.90
11748;DHT22;5931;48.832;9.072;2023-05-03T05:49:51;7.90;99.90
11748;DHT22;5931;48.832;9.072;2023-05-03T05:52:17;8.00;99.90
11748;DHT22;5931;48.832;9.072;2023-05-03T05:54:42;8.10;99.90
11748;DHT22;5931;48.832;9.072;2023-05-03T05:57:08;8.10;99.90
11748;DHT22;5931;48.832;9.072;2023-05-03T05:59:34;8.20;99.90
11748;DHT22;5931;48.832;9.072;2023-05-03T06:02:00;8.20;99.90
11748;DHT22;5931;48.832;9.072;2023-05-03T06:04:27;8.20;99.90
11748;DHT22;5931;48.832;9.072;2023-05-03T06:06:53;8.10;99.90
11748;DHT22;5931;48.832;9.072;2023-05-03T06:09:19;8.30;99.90
11748;DHT22;5931;48.832;9.072;2023-05-03T06:11:45;8.40;99.90
11748;DHT22;5931;48.832;9.072;2023-05-03T06:14:11;8.60;99.90
11748;DHT22;5931;48.832;9.072;2023-05-03T06:16:38;8.70;99.90
11748;DHT22;5931;48.832;9.072;2023-05-03T06:19:04;8.70;99.90
11748;DHT22;5931;48.832;9.072;2023-05-03T06:21:31;8.70;99.90
11748;DHT22;5931;48.832;9.072;2023-05-03T06:23:57;8.90;99.90
11748;DHT22;5931;48.832;9.072;2023-05-03T06:26:24;9.20;99.90
11748;DHT22;5931;48.832;9.072;2023-05-03T06:28:50;9.30;99.90
11748;DHT22;5931;48.832;9.072;2023-05-03T06:31:16;9.30;99.90
11748;DHT22;5931;48.832;9.072;2023-05-03T06:33:43;9.50;99.90
11748;DHT22;5931;48.832;9.072;2023-05-03T06:36:09;9.60;99.90
11748;DHT22;5931;48.832;9.072;2023-05-03T06:38:36;9.70;99.90
11748;DHT22;5931;48.832;9.072;2023-05-03T06:41:02;10.20;99.90
11748;DHT22;5931;48.832;9.072;2023-05-03T06:43:28;10.30;99.90
11748;DHT22;5931;48.832;9.072;2023-05-03T06:46:00;10.70;99.90
11748;DHT22;5931;48.832;9.072;2023-05-03T06:48:25;10.60;99.90
11748;DHT22;5931;48.832;9.072;2023-05-03T06:50:53;10.80;99.90
11748;DHT22;5931;48.832;9.072;2023-05-03T06:53:18;11.00;99.90
11748;DHT22;5931;48.832;9.072;2023-05-03T06:55:44;11.20;99.90
11748;DHT22;5931;48.832;9.072;2023-05-03T06:58:10;11.50;99.90
11748;DHT22;5931;48.832;9.072;2023-05-03T07:00:36;11.50;99.90
11748;DHT22;5931;48.832;9.072;2023-05-03T07:03:05;11.70;99.90
11748;DHT22;5931;48.832;9.072;2023-05-03T07:05:31;11.80;99.90
11748;DHT22;5931;48.832;9.072;2023-05-03T07:07:57;11.80;99.90
11748;DHT22;5931;48.832;9.072;2023-05-03T07:10:22;12.20;99.90
11748;DHT22;5931;48.832;9.072;2023-05-03T07:12:49;12.20;99.90
11748;DHT22;5931;48.832;9.072;2023-05-03T07:15:15;11.90;99.90
11748;DHT22;5931;48.832;9.072;2023-05-03T07:17:41;12.00;99.90
11748;DHT22;5931;48.832;9.072;2023-05-03T07:20:07;12.00;99.90
11748;DHT22;5931;48.832;9.072;2023-05-03T07:22:33;12.30;99.90
11748;DHT22;5931;48.832;9.072;2023-05-03T07:24:58;12.30;99.90
11748;DHT22;5931;48.832;9.072;2023-05-03T07:27:25;12.80;99.90
11748;DHT22;5931;48.832;9.072;2023-05-03T07:29:51;12.90;99.90
11748;DHT22;5931;48.832;9.072;2023-05-03T07:32:16;12.90;99.90
11748;DHT22;5931;48.832;9.072;2023-05-03T07:34:42;13.00;99.90
11748;DHT22;5931;48.832;9.072;2023-05-03T07:37:08;13.20;99.90
11748;DHT22;5931;48.832;9.072;2023-05-03T07:39:33;13.20;99.90
11748;DHT22;5931;48.832;9.072;2023-05-03T07:41:59;13.10;99.90
11748;DHT22;5931;48.832;9.072;2023-05-03T07:44:26;13.30;99.90
11748;DHT22;5931;48.832;9.072;2023-05-03T07:46:52;13.10;99.90
11748;DHT22;5931;48.832;9.072;2023-05-03T07:49:18;13.00;99.90
11748;DHT22;5931;48.832;9.072;2023-05-03T07:51:43;12.90;99.90
11748;DHT22;5931;48.832;9.072;2023-05-03T07:54:09;13.00;99.90
11748;DHT22;5931;48.832;9.072;2023-05-03T07:56:34;13.20;99.90
11748;DHT22;5931;48.832;9.072;2023-05-03T07:59:00;13.20;99.90
11748;DHT22;5931;48.832;9.072;2023-05-03T08:01:26;13.20;99.90
11748;DHT22;5931;48.832;9.072;2023-05-03T08:03:52;13.20;99.90
11748;DHT22;5931;48.832;9.072;2023-05-03T08:06:18;13.30;99.90
11748;DHT22;5931;48.832;9.072;2023-05-03T08:08:44;13.30;99.90
11748;DHT22;5931;48.832;9.072;2023-05-03T08:11:10;13.40;99.90
11748;DHT22;5931;48.832;9.072;2023-05-03T08:13:36;13.50;99.90
11748;DHT22;5931;48.832;9.072;2023-05-03T08:16:02;13.70;99.90
11748;DHT22;5931;48.832;9.072;2023-05-03T08:18:28;14.20;99.90
11748;DHT22;5931;48.832;9.072;2023-05-03T08:20:54;14.40;99.90
11748;DHT22;5931;48.832;9.072;2023-05-03T08:23:20;14.40;99.90
11748;DHT22;5931;48.832;9.072;2023-05-03T08:25:47;14.20;99.90
11748;DHT22;5931;48.832;9.072;2023-05-03T08:28:12;14.00;99.90
11748;DHT22;5931;48.832;9.072;2023-05-03T08:30:38;13.90;99.90
11748;DHT22;5931;48.832;9.072;2023-05-03T08:33:04;13.90;99.90
11748;DHT22;5931;48.832;9.072;2023-05-03T08:35:30;13.80;99.90
11748;DHT22;5931;48.832;9.072;2023-05-03T08:37:56;13.80;99.90
11748;DHT22;5931;48.832;9.072;2023-05-03T08:40:22;13.60;99.90
11748;DHT22;5931;48.832;9.072;2023-05-03T08:42:48;13.80;99.90
11748;DHT22;5931;48.832;9.072;2023-05-03T08:45:15;13.80;99.90
11748;DHT22;5931;48.832;9.072;2023-05-03T08:47:42;14.10;99.90
11748;DHT22;5931;48.832;9.072;2023-05-03T08:50:10;14.10;99.90
11748;DHT22;5931;48.832;9.072;2023-05-03T08:52:38;14.20;99.90
11748;DHT22;5931;48.832;9.072;2023-05-03T08:55:04;14.50;99.90
11748;DHT22;5931;48.832;9.072;2023-05-03T08:57:29;14.30;99.90
11748;DHT22;5931;48.832;9.072;2023-05-03T08:59:56;14.20;99.90
11748;DHT22;5931;48.832;9.072;2023-05-03T09:02:23;14.30;99.90
11748;DHT22;5931;48.832;9.072;2023-05-03T09:04:48;14.40;99.90
11748;DHT22;5931;48.832;9.072;2023-05-03T09:07:14;14.30;99.90
11748;DHT22;5931;48.832;9.072;2023-05-03T09:09:41;14.10;99.90
11748;DHT22;5931;48.832;9.072;2023-05-03T09:12:07;14.00;99.90
11748;DHT22;5931;48.832;9.072;2023-05-03T09:14:43;14.10;99.90
11748;DHT22;5931;48.832;9.072;2023-05-03T09:17:18;14.20;99.90
11748;DHT22;5931;48.832;9.072;2023-05-03T09:19:50;14.60;99.90
11748;DHT22;5931;48.832;9.072;2023-05-03T09:22:17;14.60;99.90
11748;DHT22;5931;48.832;9.072;2023-05-03T09:24:59;14.60;99.90
11748;DHT22;5931;48.832;9.072;2023-05-03T09:27:26;14.80;99.90
11748;DHT22;5931;48.832;9.072;2023-05-03T09:29:52;14.90;99.90
11748;DHT22;5931;48.832;9.072;2023-05-03T09:32:19;14.60;99.90
11748;DHT22;5931;48.832;9.072;2023-05-03T09:34:46;14.80;99.90
11748;DHT22;5931;48.832;9.072;2023-05-03T09:37:12;14.70;99.90
11748;DHT22;5931;48.832;9.072;2023-05-03T09:39:44;14.60;99.90
11748;DHT22;5931;48.832;9.072;2023-05-03T09:42:17;14.60;99.90
11748;DHT22;5931;48.832;9.072;2023-05-03T09:44:48;14.60;99.90
11748;DHT22;5931;48.832;9.072;2023-05-03T09:47:16;14.60;99.90
11748;DHT22;5931;48.832;9.072;2023-05-03T09:49:43;15.10;99.90
11748;DHT22;5931;48.832;9.072;2023-05-03T09:52:08;15.50;99.90
11748;DHT22;5931;48.832;9.072;2023-05-03T09:54:36;15.90;99.90
11748;DHT22;5931;48.832;9.072;2023-05-03T09:57:03;15.80;99.90
11748;DHT22;5931;48.832;9.072;2023-05-03T09:59:29;15.80;99.90
11748;DHT22;5931;48.832;9.072;2023-05-03T10:01:57;15.80;99.90
11748;DHT22;5931;48.832;9.072;2023-05-03T10:04:25;15.70;99.90
11748;DHT22;5931;48.832;9.072;2023-05-03T10:06:57;15.40;99.90
11748;DHT22;5931;48.832;9.072;2023-05-03T10:09:30;15.20;99.90
11748;DHT22;5931;48.832;9.072;2023-05-03T10:11:58;15.20;99.90
11748;DHT22;5931;48.832;9.072;2023-05-03T10:14:26;15.50;99.90
11748;DHT22;5931;48.832;9.072;2023-05-03T10:16:58;15.80;99.90
11748;DHT22;5931;48.832;9.072;2023-05-03T10:22:07;16.30;99.90
11748;DHT22;5931;48.832;9.072;2023-05-03T10:24:34;16.20;99.90
11748;DHT22;5931;48.832;9.072;2023-05-03T10:27:01;16.10;99.90
11748;DHT22;5931;48.832;9.072;2023-05-03T10:32:26;16.40;99.90
11748;DHT22;5931;48.832;9.072;2023-05-03T10:35:07;16.30;99.90
11748;DHT22;5931;48.832;9.072;2023-05-03T10:37:34;16.40;99.90
11748;DHT22;5931;48.832;9.072;2023-05-03T10:42:43;16.90;99.90
11748;DHT22;5931;48.832;9.072;2023-05-03T10:45:19;17.00;99.90
11748;DHT22;5931;48.832;9.072;2023-05-03T10:50:41;17.90;99.90
11748;DHT22;5931;48.832;9.072;2023-05-03T10:53:07;18.10;99.90
11748;DHT22;5931;48.832;9.072;2023-05-03T10:56:02;18.10;99.90
11748;DHT22;5931;48.832;9.072;2023-05-03T10:58:36;17.90;99.90
11748;DHT22;5931;48.832;9.072;2023-05-03T11:01:04;17.80;99.90
11748;DHT22;5931;48.832;9.072;2023-05-03T11:03:37;17.90;99.90
11748;DHT22;5931;48.832;9.072;2023-05-03T11:06:07;17.70;99.90
11748;DHT22;5931;48.832;9.072;2023-05-03T11:08:33;17.20;99.90
11748;DHT22;5931;48.832;9.072;2023-05-03T11:11:03;17.20;99.90
11748;DHT22;5931;48.832;9.072;2023-05-03T11:13:35;17.30;99.90
11748;DHT22;5931;48.832;9.072;2023-05-03T11:16:04;17.30;99.90
11748;DHT22;5931;48.832;9.072;2023-05-03T11:18:31;17.00;99.90
11748;DHT22;5931;48.832;9.072;2023-05-03T11:20:57;17.20;99.90
11748;DHT22;5931;48.832;9.072;2023-05-03T11:23:27;16.90;99.90
11748;DHT22;5931;48.832;9.072;2023-05-03T11:25:54;16.90;99.90
11748;DHT22;5931;48.832;9.072;2023-05-03T11:28:21;16.80;99.90
11748;DHT22;5931;48.832;9.072;2023-05-03T11:30:47;16.80;99.90
11748;DHT22;5931;48.832;9.072;2023-05-03T11:33:13;17.30;99.90
11748;DHT22;5931;48.832;9.072;2023-05-03T11:35:38;17.70;99.90
11748;DHT22;5931;48.832;9.072;2023-05-03T11:38:04;17.90;99.90
11748;DHT22;5931;48.832;9.072;2023-05-03T11:40:30;17.90;99.90
11748;DHT22;5931;48.832;9.072;2023-05-03T11:42:57;18.40;99.90
11748;DHT22;5931;48.832;9.072;2023-05-03T11:45:40;18.40;99.90
11748;DHT22;5931;48.832;9.072;2023-05-03T11:48:09;18.40;99.90
11748;DHT22;5931;48.832;9.072;2023-05-03T11:50:53;18.50;99.90
11748;DHT22;5931;48.832;9.072;2023-05-03T11:53:21;18.60;99.90
11748;DHT22;5931;48.832;9.072;2023-05-03T11:55:52;18.10;99.90
11748;DHT22;5931;48.832;9.072;2023-05-03T11:58:22;18.30;99.90
11748;DHT22;5931;48.832;9.072;2023-05-03T12:00:54;18.50;99.90
11748;DHT22;5931;48.832;9.072;2023-05-03T12:03:24;18.50;99.90
11748;DHT22;5931;48.832;9.072;2023-05-03T12:05:51;18.50;99.90
11748;DHT22;5931;48.832;9.072;2023-05-03T12:08:20;18.40;99.90
11748;DHT22;5931;48.832;9.072;2023-05-03T12:10:49;18.00;99.90
11748;DHT22;5931;48.832;9.072;2023-05-03T12:13:26;18.00;99.90
11748;DHT22;5931;48.832;9.072;2023-05-03T12:15:59;18.00;99.90
11748;DHT22;5931;48.832;9.072;2023-05-03T12:18:25;17.80;99.90
11748;DHT22;5931;48.832;9.072;2023-05-03T12:20:57;18.40;99.90
11748;DHT22;5931;48.832;9.072;2023-05-03T12:23:24;18.70;99.90
11748;DHT22;5931;48.832;9.072;2023-05-03T12:25:50;18.90;99.90
11748;DHT22;5931;48.832;9.072;2023-05-03T12:28:17;18.80;99.90
11748;DHT22;5931;48.832;9.072;2023-05-03T12:30:43;18.70;99.90
11748;DHT22;5931;48.832;9.072;2023-05-03T12:33:09;18.30;99.90
11748;DHT22;5931;48.832;9.072;2023-05-03T12:35:35;18.70;99.90
11748;DHT22;5931;48.832;9.072;2023-05-03T12:38:01;19.10;99.90
11748;DHT22;5931;48.832;9.072;2023-05-03T12:40:31;19.60;99.90
11748;DHT22;5931;48.832;9.072;2023-05-03T12:42:56;19.90;99.90
11748;DHT22;5931;48.832;9.072;2023-05-03T12:45:22;19.40;99.90
11748;DHT22;5931;48.832;9.072;2023-05-03T12:47:48;19.30;99.90
11748;DHT22;5931;48.832;9.072;2023-05-03T12:50:13;19.50;99.90
11748;DHT22;5931;48.832;9.072;2023-05-03T12:52:39;19.80;99.90
11748;DHT22;5931;48.832;9.072;2023-05-03T12:55:06;19.60;99.90
11748;DHT22;5931;48.832;9.072;2023-05-03T12:57:32;19.50;99.90
11748;DHT22;5931;48.832;9.072;2023-05-03T12:59:58;19.60;99.90
11748;DHT22;5931;48.832;9.072;2023-05-03T13:02:23;19.90;99.90
11748;DHT22;5931;48.832;9.072;2023-05-03T13:04:49;20.20;99.90
11748;DHT22;5931;48.832;9.072;2023-05-03T13:07:20;19.90;99.90
11748;DHT22;5931;48.832;9.072;2023-05-03T13:09:46;19.70;99.90
11748;DHT22;5931;48.832;9.072;2023-05-03T13:12:12;19.50;99.90
11748;DHT22;5931;48.832;9.072;2023-05-03T13:14:37;19.40;99.90
11748;DHT22;5931;48.832;9.072;2023-05-03T13:17:03;19.10;99.90
11748;DHT22;5931;48.832;9.072;2023-05-03T13:19:29;19.20;99.90
11748;DHT22;5931;48.832;9.072;2023-05-03T13:21:55;19.40;99.90
11748;DHT22;5931;48.832;9.072;2023-05-03T13:24:20;19.60;99.90
11748;DHT22;5931;48.832;9.072;2023-05-03T13:26:46;19.60;99.90
11748;DHT22;5931;48.832;9.072;2023-05-03T13:29:12;19.90;99.90
11748;DHT22;5931;48.832;9.072;2023-05-03T13:31:37;20.40;99.90
11748;DHT22;5931;48.832;9.072;2023-05-03T13:34:03;20.20;99.90
11748;DHT22;5931;48.832;9.072;2023-05-03T13:36:29;20.40;99.90
11748;DHT22;5931;48.832;9.072;2023-05-03T13:38:55;20.80;99.90
11748;DHT22;5931;48.832;9.072;2023-05-03T13:41:20;21.20;99.90
11748;DHT22;5931;48.832;9.072;2023-05-03T13:43:47;21.50;99.90
11748;DHT22;5931;48.832;9.072;2023-05-03T13:46:12;21.30;99.90
11748;DHT22;5931;48.832;9.072;2023-05-03T13:48:39;21.60;99.90
11748;DHT22;5931;48.832;9.072;2023-05-03T13:51:09;21.40;98.70
11748;DHT22;5931;48.832;9.072;2023-05-03T13:53:35;21.00;98.70
11748;DHT22;5931;48.832;9.072;2023-05-03T13:56:02;20.50;98.50
11748;DHT22;5931;48.832;9.072;2023-05-03T13:58:28;20.70;99.10
11748;DHT22;5931;48.832;9.072;2023-05-03T14:00:54;21.30;99.70
11748;DHT22;5931;48.832;9.072;2023-05-03T14:03:20;22.30;99.90
11748;DHT22;5931;48.832;9.072;2023-05-03T14:05:46;22.30;98.70
11748;DHT22;5931;48.832;9.072;2023-05-03T14:08:11;21.40;97.90
11748;DHT22;5931;48.832;9.072;2023-05-03T14:10:37;21.60;99.70
11748;DHT22;5931;48.832;9.072;2023-05-03T14:13:03;22.30;97.80
11748;DHT22;5931;48.832;9.072;2023-05-03T14:15:29;23.90;98.00
11748;DHT22;5931;48.832;9.072;2023-05-03T14:17:55;25.30;94.10
11748;DHT22;5931;48.832;9.072;2023-05-03T14:20:21;26.70;92.60
11748;DHT22;5931;48.832;9.072;2023-05-03T14:22:46;27.20;90.80
11748;DHT22;5931;48.832;9.072;2023-05-03T14:25:12;27.20;89.90
11748;DHT22;5931;48.832;9.072;2023-05-03T14:27:38;27.70;90.10
11748;DHT22;5931;48.832;9.072;2023-05-03T14:30:04;28.40;88.30
11748;DHT22;5931;48.832;9.072;2023-05-03T14:32:30;29.00;86.50
11748;DHT22;5931;48.832;9.072;2023-05-03T14:34:56;27.90;81.20
11748;DHT22;5931;48.832;9.072;2023-05-03T14:37:22;27.40;82.50
11748;DHT22;5931;48.832;9.072;2023-05-03T14:39:48;26.90;81.50
11748;DHT22;5931;48.832;9.072;2023-05-03T14:42:13;26.30;82.40
11748;DHT22;5931;48.832;9.072;2023-05-03T14:44:39;25.40;83.70
11748;DHT22;5931;48.832;9.072;2023-05-03T14:47:05;25.90;83.80
11748;DHT22;5931;48.832;9.072;2023-05-03T14:49:31;26.10;83.80
11748;DHT22;5931;48.832;9.072;2023-05-03T14:52:07;27.50;83.30
11748;DHT22;5931;48.832;9.072;2023-05-03T14:54:34;27.80;80.70
11748;DHT22;5931;48.832;9.072;2023-05-03T14:57:00;28.00;78.70
11748;DHT22;5931;48.832;9.072;2023-05-03T14:59:26;28.90;78.20
11748;DHT22;5931;48.832;9.072;2023-05-03T15:01:52;28.90;76.10
11748;DHT22;5931;48.832;9.072;2023-05-03T15:04:19;28.70;77.40
11748;DHT22;5931;48.832;9.072;2023-05-03T15:06:44;29.80;78.10
11748;DHT22;5931;48.832;9.072;2023-05-03T15:09:10;30.30;72.90
11748;DHT22;5931;48.832;9.072;2023-05-03T15:11:37;30.20;74.60
11748;DHT22;5931;48.832;9.072;2023-05-03T15:14:03;30.00;72.10
11748;DHT22;5931;48.832;9.072;2023-05-03T15:16:28;28.70;73.70
11748;DHT22;5931;48.832;9.072;2023-05-03T15:18:54;28.20;75.30
11748;DHT22;5931;48.832;9.072;2023-05-03T15:21:20;29.00;76.90
11748;DHT22;5931;48.832;9.072;2023-05-03T15:23:46;29.30;74.40
11748;DHT22;5931;48.832;9.072;2023-05-03T15:26:16;28.70;74.50
11748;DHT22;5931;48.832;9.072;2023-05-03T15:28:42;28.50;75.70
11748;DHT22;5931;48.832;9.072;2023-05-03T15:31:07;27.40;76.20
11748;DHT22;5931;48.832;9.072;2023-05-03T15:33:40;24.90;78.00
11748;DHT22;5931;48.832;9.072;2023-05-03T15:36:08;24.40;82.70
11748;DHT22;5931;48.832;9.072;2023-05-03T15:38:35;24.10;81.40
11748;DHT22;5931;48.832;9.072;2023-05-03T15:41:00;23.50;83.30
11748;DHT22;5931;48.832;9.072;2023-05-03T15:43:26;23.60;83.30
11748;DHT22;5931;48.832;9.072;2023-05-03T15:45:51;24.00;83.20
11748;DHT22;5931;48.832;9.072;2023-05-03T15:48:17;24.20;81.30
11748;DHT22;5931;48.832;9.072;2023-05-03T15:50:43;24.60;81.80
11748;DHT22;5931;48.832;9.072;2023-05-03T15:53:09;24.70;81.50
11748;DHT22;5931;48.832;9.072;2023-05-03T15:55:35;23.90;81.90
11748;DHT22;5931;48.832;9.072;2023-05-03T15:58:00;23.80;82.30
11748;DHT22;5931;48.832;9.072;2023-05-03T16:00:26;23.50;84.00
11748;DHT22;5931;48.832;9.072;2023-05-03T16:02:52;23.40;83.30
11748;DHT22;5931;48.832;9.072;2023-05-03T16:05:18;23.30;83.80
11748;DHT22;5931;48.832;9.072;2023-05-03T16:07:44;23.50;84.40
11748;DHT22;5931;48.832;9.072;2023-05-03T16:10:11;23.60;85.10
11748;DHT22;5931;48.832;9.072;2023-05-03T16:12:37;23.60;81.50